createdAt,value
2022-09-30T00:03:48.926Z,2.93
2022-09-30T00:18:49.411Z,1.37
2022-09-30T00:33:49.047Z,1.25
2022-09-30T00:48:49.530Z,2.15
2022-09-30T01:03:49.390Z,1.59
2022-09-30T01:18:49.795Z,1.9
2022-09-30T01:33:49.014Z,1.95
2022-09-30T01:48:49.774Z,2.14
2022-09-30T02:03:49.705Z,2.24
2022-09-30T02:18:50.567Z,2.28
2022-09-30T03:33:48.796Z,2.3
2022-09-30T03:48:49.436Z,5.11
2022-09-30T04:03:49.019Z,4.89
2022-09-30T04:18:49.271Z,2.79
2022-09-30T04:33:48.967Z,3.92
2022-09-30T04:48:48.987Z,12.49
2022-09-30T05:03:48.832Z,12.32
2022-09-30T05:48:49.499Z,6.94
2022-09-30T06:03:49.952Z,6.58
2022-09-30T06:18:48.863Z,14.14
2022-09-30T06:33:49.187Z,14.94
2022-09-30T06:48:49.074Z,9.39
2022-09-30T07:03:54.552Z,8.54
2022-09-30T07:19:03.849Z,9.04
2022-09-30T07:33:48.837Z,7.58
2022-09-30T07:48:51.668Z,7.9
2022-09-30T08:03:49.391Z,9.96
2022-09-30T08:18:49.189Z,16.61
2022-09-30T08:33:49.244Z,10.25
2022-09-30T08:48:49.898Z,6.8
2022-09-30T09:03:48.924Z,6.64
2022-09-30T09:18:49.626Z,4.61
2022-09-30T09:33:49.212Z,11.1
2022-09-30T10:03:48.877Z,5.23
2022-09-30T10:18:48.719Z,4.56
2022-09-30T10:33:49.033Z,4.18
2022-09-30T10:48:48.906Z,4.8
2022-09-30T11:03:49.207Z,4.3
2022-09-30T11:18:48.903Z,4.23
2022-09-30T11:33:49.219Z,8.51
2022-09-30T11:48:49.431Z,11.18
2022-09-30T12:03:49.213Z,7.94
2022-09-30T12:18:48.948Z,6.34
2022-09-30T12:33:48.682Z,5.6
2022-09-30T12:48:49.485Z,4.95
2022-09-30T13:03:48.928Z,2.23
2022-09-30T13:18:49.526Z,1.74
2022-09-30T13:33:49.020Z,1.2
2022-09-30T13:48:49.383Z,0.64
2022-09-30T14:03:49.161Z,2.07
2022-09-30T14:18:49.350Z,3.78
2022-09-30T14:33:49.938Z,3.73
2022-09-30T14:48:50.068Z,4.94
2022-09-30T15:04:20.856Z,5.88
2022-09-30T15:18:52.356Z,6.01
2022-09-30T15:33:49.499Z,4.98
2022-09-30T15:48:49.840Z,3.89
2022-09-30T16:03:49.794Z,3.56
2022-09-30T16:18:52.712Z,4.63
2022-09-30T16:48:53.691Z,4.86
2022-09-30T17:05:05.269Z,10.29
2022-09-30T17:18:49.484Z,17.1
2022-09-30T17:33:50.228Z,25.5
2022-09-30T17:48:50.173Z,12.56
2022-09-30T18:03:51.918Z,4.17
2022-09-30T18:18:54.470Z,6.33
2022-09-30T18:48:51.018Z,11.76
2022-09-30T19:03:55.826Z,7.01
2022-09-30T19:18:50.154Z,3.92
2022-09-30T19:33:56.328Z,6.8
2022-09-30T19:48:49.497Z,5.84
2022-09-30T20:03:49.849Z,5.37
2022-09-30T20:18:50.412Z,5.34
2022-09-30T20:33:51.128Z,5.73
2022-09-30T20:48:49.096Z,7.02
2022-09-30T21:03:49.494Z,6.69
2022-09-30T21:18:48.971Z,6.51
2022-09-30T21:33:49.603Z,6.76
2022-09-30T22:18:49.654Z,6.54
2022-09-30T22:48:51.518Z,7.19
2022-09-30T23:03:49.679Z,5.93
2022-09-30T23:18:49.322Z,8.96
2022-09-30T23:33:52.985Z,5.77
2022-09-30T23:49:05.014Z,6.15
